map of PNI home
PNI - Airport
Location
City:  Pohnpei, Pohnpei, Micronesia (Federated States of)
Near (Alt.):Ponape
Name:Pohnpei International Airport
ICAO:PTPN
IATA:PNI
FAA LID:PNI

Details
Type:Airport (Aerodrome, Airfield)
Use:Public/Civil, International (customs port of entry)
Latitude:659'06"N (6.985083)
Longitude:15812'35"E (158.209806)
Datum:WGS 1984
Elevation:8 ft (2 m)
Variation:5.71E (WMM2015v2 magnetic declination)
-0.03 annual change
Runways:1
Longest:6600 × 150 ft (2012 × 45.5 m), paved

Time
Time Zone:UTC+11
Local Time:

Weather
METAR:PTPN 040350Z 06012KT 15SM SCT018 BKN300 31/25 A2973 RMK LAST
TAF:PTPN 032345Z 0400/0424 07014KT P6SM SCT018 SCT120

Related Locations
Nearby:
Farthest:ASI: 11938 mi / 19213 km
Ascension Island (Georgetown) [RAF Ascension Island (Wideawake Field, Wide Awake Field)], AC, SH

Find:

   beyond  
but within

Other Information
Maps:
NOTAMs:
Links:
Sources:

  
  • flag of Micronesia (Federated States of)
  • flag of Pohnpei
  

Sectional Chart

Flight Planning
at skyvector.com

Satellite Image

Google Maps Satellite view

 

Copyright © 2004-2019 Karl L. Swartz. All rights reserved.
The Great Circle Mapper name and logo are trademarks of the Great Circle Mapper.
All other trademarks mentioned herein belong to their respective owners.
Please see credits for attibutions and further copyright information.

  Follow gcmap on Facebook Follow gcmap on Twitter GCmap on LinkedIn

hCard Microformat

Geo Microformat